createdAt,value
2022-09-15T00:01:31.281Z,16.06
2022-09-15T00:03:58.013Z,16.08
2022-09-15T00:06:24.659Z,15.91
2022-09-15T00:08:51.214Z,15.80
2022-09-15T00:11:20.034Z,16.06
2022-09-15T00:13:48.618Z,16.02
2022-09-15T00:16:16.896Z,15.91
2022-09-15T00:18:44.946Z,15.91
2022-09-15T00:21:13.594Z,15.94
2022-09-15T00:23:40.455Z,15.90
2022-09-15T00:26:08.901Z,15.95
2022-09-15T00:28:35.673Z,15.91
2022-09-15T00:31:07.037Z,15.91
2022-09-15T00:33:33.906Z,15.88
2022-09-15T00:36:03.242Z,15.77
2022-09-15T00:38:32.395Z,15.86
2022-09-15T00:41:00.513Z,15.88
2022-09-15T00:43:45.417Z,15.88
2022-09-15T00:46:14.651Z,15.88
2022-09-15T00:48:45.371Z,15.83
2022-09-15T00:51:16.490Z,15.80
2022-09-15T00:53:46.084Z,15.86
2022-09-15T00:56:15.923Z,15.92
2022-09-15T00:58:52.305Z,15.78
2022-09-15T01:01:20.328Z,15.90
2022-09-15T01:03:46.950Z,15.87
2022-09-15T01:06:18.129Z,15.72
2022-09-15T01:08:51.413Z,15.64
2022-09-15T01:11:18.518Z,15.78
2022-09-15T01:13:45.426Z,15.88
2022-09-15T01:16:19.056Z,15.87
2022-09-15T01:19:01.193Z,15.82
2022-09-15T01:21:36.450Z,15.88
2022-09-15T01:24:42.361Z,15.80
2022-09-15T01:27:38.100Z,15.85
2022-09-15T01:30:08.726Z,15.84
2022-09-15T01:32:49.983Z,15.44
2022-09-15T01:35:30.291Z,15.78
2022-09-15T01:38:03.266Z,15.61
2022-09-15T01:40:35.363Z,15.50
2022-09-15T01:43:05.352Z,15.72
2022-09-15T01:45:35.111Z,15.67
2022-09-15T01:48:06.531Z,15.66
2022-09-15T01:50:37.081Z,15.63
2022-09-15T01:53:09.986Z,15.46
2022-09-15T01:55:41.408Z,15.57
2022-09-15T01:58:08.273Z,15.58
2022-09-15T02:00:41.469Z,15.46
2022-09-15T02:03:16.490Z,15.41
2022-09-15T02:05:48.438Z,15.41
2022-09-15T02:08:20.869Z,15.38
2022-09-15T02:10:57.331Z,15.19
2022-09-15T02:13:31.618Z,15.21
2022-09-15T02:16:00.378Z,15.12
2022-09-15T02:18:34.886Z,15.00
2022-09-15T02:21:07.878Z,15.09
2022-09-15T02:23:39.928Z,15.02
2022-09-15T02:26:11.071Z,14.98
2022-09-15T02:28:39.345Z,14.81
2022-09-15T02:31:10.565Z,14.86
2022-09-15T02:33:41.035Z,14.88
2022-09-15T02:36:11.427Z,14.85
2022-09-15T02:38:43.691Z,14.64
2022-09-15T02:41:10.394Z,14.75
2022-09-15T02:43:44.547Z,14.45
2022-09-15T02:46:12.588Z,14.49
2022-09-15T02:48:39.340Z,14.55
2022-09-15T02:51:06.213Z,14.38
2022-09-15T02:53:32.958Z,14.24
2022-09-15T02:55:59.643Z,14.62
2022-09-15T02:58:26.287Z,14.54
2022-09-15T03:00:52.903Z,14.61
2022-09-15T03:03:20.873Z,14.59
2022-09-15T03:05:47.718Z,14.52
2022-09-15T03:08:14.220Z,14.40
2022-09-15T03:10:40.764Z,14.56
2022-09-15T03:13:07.299Z,14.45
2022-09-15T03:15:33.891Z,14.49
2022-09-15T03:18:01.574Z,14.51
2022-09-15T03:20:29.513Z,14.22
2022-09-15T03:22:56.022Z,14.39
2022-09-15T03:25:22.797Z,14.48
2022-09-15T03:27:49.337Z,14.50
2022-09-15T03:30:15.929Z,14.32
2022-09-15T03:32:42.445Z,14.33
2022-09-15T03:35:09.774Z,14.30
2022-09-15T03:37:37.663Z,14.53
2022-09-15T03:40:05.186Z,14.26
2022-09-15T03:42:31.828Z,14.45
2022-09-15T03:44:58.439Z,14.53
2022-09-15T03:47:24.967Z,14.53
2022-09-15T03:49:51.703Z,14.57
2022-09-15T03:52:18.210Z,14.33
2022-09-15T03:54:48.338Z,14.58
2022-09-15T03:57:14.876Z,14.47
2022-09-15T03:59:41.411Z,14.61
2022-09-15T04:02:08.486Z,14.52
2022-09-15T04:04:35.545Z,13.93
2022-09-15T04:07:02.653Z,14.12
2022-09-15T04:09:29.414Z,14.12
2022-09-15T04:11:57.833Z,14.60
2022-09-15T04:14:24.477Z,14.61
2022-09-15T04:16:51.150Z,14.62
2022-09-15T04:19:17.916Z,14.62
2022-09-15T04:21:44.427Z,14.50
2022-09-15T04:24:10.963Z,14.61
2022-09-15T04:26:38.001Z,14.59
2022-09-15T04:29:12.441Z,14.57
2022-09-15T04:31:39.120Z,14.52
2022-09-15T04:34:08.258Z,14.11
2022-09-15T04:36:35.095Z,14.40
2022-09-15T04:39:01.724Z,14.40
2022-09-15T04:41:28.804Z,14.16
2022-09-15T04:43:55.511Z,14.30
2022-09-15T04:46:23.511Z,14.28
2022-09-15T04:48:50.059Z,14.23
2022-09-15T04:51:19.531Z,14.15
2022-09-15T04:53:46.736Z,14.07
2022-09-15T04:56:15.451Z,13.89
2022-09-15T04:58:43.723Z,13.98
2022-09-15T05:01:12.781Z,14.08
2022-09-15T05:03:41.127Z,13.83
2022-09-15T05:06:10.010Z,14.04
2022-09-15T05:08:37.309Z,13.80
2022-09-15T05:11:06.106Z,14.00
2022-09-15T05:13:33.766Z,14.01
2022-09-15T05:16:04.370Z,14.16
2022-09-15T05:18:31.063Z,14.18
2022-09-15T05:21:00.074Z,14.15
2022-09-15T05:23:26.650Z,14.14
2022-09-15T05:25:56.696Z,14.03
2022-09-15T05:28:23.690Z,14.04
2022-09-15T05:30:50.334Z,13.99
2022-09-15T05:33:16.905Z,13.94
2022-09-15T05:35:50.546Z,13.98
2022-09-15T05:38:18.953Z,13.96
2022-09-15T05:40:45.525Z,13.96
2022-09-15T05:43:12.352Z,13.88
2022-09-15T05:45:39.234Z,13.88
2022-09-15T05:48:05.876Z,14.00
2022-09-15T05:50:32.460Z,14.03
2022-09-15T05:52:59.008Z,14.07
2022-09-15T05:55:27.199Z,14.10
2022-09-15T05:57:54.191Z,14.15
2022-09-15T06:00:21.148Z,14.22
2022-09-15T06:02:47.978Z,14.12
2022-09-15T06:05:14.750Z,14.28
2022-09-15T06:07:41.352Z,14.31
2022-09-15T06:10:09.265Z,14.33
2022-09-15T06:12:37.414Z,14.41
2022-09-15T06:15:04.451Z,14.48
2022-09-15T06:17:31.535Z,14.47
2022-09-15T06:19:58.354Z,14.49
2022-09-15T06:22:25.014Z,14.69
2022-09-15T06:24:51.563Z,14.69
2022-09-15T06:27:18.184Z,14.72
2022-09-15T06:29:46.077Z,14.70
2022-09-15T06:32:12.748Z,14.78
2022-09-15T06:34:39.338Z,14.85
2022-09-15T06:37:05.910Z,15.07
2022-09-15T06:39:32.448Z,15.05
2022-09-15T06:42:02.667Z,15.13
2022-09-15T06:44:29.784Z,15.16
2022-09-15T06:46:57.696Z,15.19
2022-09-15T06:49:24.401Z,15.14
2022-09-15T06:51:50.940Z,15.23
2022-09-15T06:54:17.761Z,15.11
2022-09-15T06:56:44.733Z,15.28
2022-09-15T06:59:11.843Z,15.42
2022-09-15T07:01:38.621Z,15.50
2022-09-15T07:04:08.114Z,15.58
2022-09-15T07:06:34.661Z,15.64
2022-09-15T07:09:01.214Z,15.69
2022-09-15T07:11:28.477Z,15.71
2022-09-15T07:13:55.138Z,15.73
2022-09-15T07:16:22.069Z,15.73
2022-09-15T07:18:49.108Z,15.84
2022-09-15T07:21:19.600Z,15.84
2022-09-15T07:23:46.847Z,15.89
2022-09-15T07:26:15.427Z,15.71
2022-09-15T07:28:43.994Z,15.58
2022-09-15T07:31:12.307Z,15.90
2022-09-15T07:33:38.857Z,15.74
2022-09-15T07:36:06.514Z,16.01
2022-09-15T07:38:35.535Z,15.95
2022-09-15T07:41:03.387Z,16.14
2022-09-15T07:43:29.880Z,16.18
2022-09-15T07:45:56.916Z,16.32
2022-09-15T07:48:26.467Z,16.33
2022-09-15T07:50:53.433Z,16.13
2022-09-15T07:53:20.178Z,16.40
2022-09-15T07:55:52.099Z,16.25
2022-09-15T07:58:18.743Z,16.55
2022-09-15T08:00:45.532Z,16.50
2022-09-15T08:03:12.130Z,16.69
2022-09-15T08:05:42.342Z,16.61
2022-09-15T08:08:11.425Z,16.87
2022-09-15T08:10:38.591Z,17.04
2022-09-15T08:13:06.616Z,16.86
2022-09-15T08:15:35.415Z,16.92
2022-09-15T08:18:02.211Z,17.06
2022-09-15T08:20:28.749Z,17.08
2022-09-15T08:22:55.420Z,16.91
2022-09-15T08:25:21.929Z,17.08
2022-09-15T08:27:48.507Z,17.13
2022-09-15T08:30:16.562Z,17.27
2022-09-15T08:32:43.227Z,17.41
2022-09-15T08:35:09.783Z,17.54
2022-09-15T08:37:36.354Z,17.60
2022-09-15T08:40:03.341Z,17.74
2022-09-15T08:42:30.033Z,17.78
2022-09-15T08:45:00.335Z,17.78
2022-09-15T08:47:33.826Z,17.75
2022-09-15T08:50:05.418Z,17.86
2022-09-15T08:52:33.397Z,17.76
2022-09-15T08:55:11.652Z,17.73
2022-09-15T08:57:38.270Z,17.99
2022-09-15T09:00:13.271Z,18.07
2022-09-15T09:02:58.088Z,18.19
2022-09-15T09:05:38.547Z,18.23
2022-09-15T09:08:30.555Z,18.09
2022-09-15T09:11:09.003Z,18.11
2022-09-15T09:13:40.484Z,18.13
2022-09-15T09:16:23.804Z,18.01
2022-09-15T09:19:03.080Z,18.11
2022-09-15T09:21:33.054Z,17.89
2022-09-15T09:24:04.930Z,17.97
2022-09-15T09:26:35.127Z,17.91
2022-09-15T09:29:06.144Z,17.91
2022-09-15T09:31:35.708Z,17.95
2022-09-15T09:34:13.765Z,18.26
2022-09-15T09:36:40.363Z,18.18
2022-09-15T09:39:12.968Z,18.31
2022-09-15T09:41:40.849Z,18.46
2022-09-15T09:44:11.147Z,18.46
2022-09-15T09:46:38.353Z,18.53
2022-09-15T09:49:13.953Z,18.58
2022-09-15T09:51:49.707Z,18.62
2022-09-15T09:54:16.251Z,18.83
2022-09-15T09:56:43.647Z,19.02
2022-09-15T09:59:39.056Z,18.91
2022-09-15T10:02:14.162Z,18.98
2022-09-15T10:04:43.368Z,18.98
2022-09-15T10:07:10.851Z,18.93
2022-09-15T10:09:38.511Z,18.87
2022-09-15T10:12:06.450Z,18.97
2022-09-15T10:14:35.648Z,19.25
2022-09-15T10:17:06.315Z,19.24
2022-09-15T10:19:36.493Z,19.41
2022-09-15T10:22:05.028Z,19.27
2022-09-15T10:24:34.450Z,19.21
2022-09-15T10:27:15.889Z,19.31
2022-09-15T10:29:42.669Z,19.13
2022-09-15T10:32:27.232Z,19.24
2022-09-15T10:35:02.578Z,19.14
2022-09-15T10:37:34.166Z,19.19
2022-09-15T10:40:09.206Z,19.23
2022-09-15T10:42:50.538Z,19.30
2022-09-15T10:45:32.746Z,19.26
2022-09-15T10:48:17.354Z,19.35
2022-09-15T10:50:54.673Z,19.46
2022-09-15T10:53:37.115Z,19.52
2022-09-15T10:56:13.438Z,19.73
2022-09-15T10:58:50.664Z,19.88
2022-09-15T11:01:31.337Z,19.84
2022-09-15T11:04:12.328Z,19.87
2022-09-15T11:06:47.723Z,19.72
2022-09-15T11:09:20.978Z,20.07
2022-09-15T11:11:59.553Z,20.10
2022-09-15T11:14:41.662Z,20.09
2022-09-15T11:17:23.626Z,19.91
2022-09-15T11:20:30.354Z,20.09
2022-09-15T11:23:03.679Z,20.18
2022-09-15T11:25:34.572Z,20.27
2022-09-15T11:28:09.160Z,20.08
2022-09-15T11:30:41.660Z,20.19
2022-09-15T11:33:18.557Z,20.09
2022-09-15T11:35:47.911Z,20.13
2022-09-15T11:38:30.581Z,19.88
2022-09-15T11:41:10.271Z,19.95
2022-09-15T11:43:43.870Z,20.00
2022-09-15T11:46:15.052Z,20.02
2022-09-15T11:48:45.319Z,20.01
2022-09-15T11:51:16.080Z,20.00
2022-09-15T11:53:50.038Z,20.16
2022-09-15T11:56:24.397Z,20.13
2022-09-15T11:59:02.473Z,20.10
2022-09-15T12:01:32.319Z,20.36
2022-09-15T12:04:03.094Z,20.26
2022-09-15T12:06:45.811Z,20.29
2022-09-15T12:09:15.878Z,20.40
2022-09-15T12:11:46.308Z,20.09
2022-09-15T12:14:16.397Z,20.00
2022-09-15T12:16:44.138Z,19.93
2022-09-15T12:19:18.291Z,19.94
2022-09-15T12:21:53.792Z,19.95
2022-09-15T12:24:34.258Z,19.72
2022-09-15T12:27:02.535Z,19.59
2022-09-15T12:29:31.490Z,19.73
2022-09-15T12:32:20.192Z,19.95
2022-09-15T12:35:02.143Z,20.18
2022-09-15T12:37:39.822Z,20.17
2022-09-15T12:40:26.696Z,20.04
2022-09-15T12:42:54.833Z,19.99
2022-09-15T12:45:24.633Z,20.00
2022-09-15T12:47:54.993Z,20.17
2022-09-15T12:50:25.539Z,20.47
2022-09-15T12:52:54.430Z,20.69
2022-09-15T12:55:24.270Z,20.59
2022-09-15T12:57:58.441Z,20.42
2022-09-15T13:00:34.366Z,20.09
2022-09-15T13:03:01.970Z,20.14
2022-09-15T13:06:11.398Z,20.10
2022-09-15T13:08:49.204Z,20.22
2022-09-15T13:11:19.721Z,20.54
2022-09-15T13:13:51.599Z,20.31
2022-09-15T13:16:25.902Z,20.27
2022-09-15T13:19:03.619Z,20.20
2022-09-15T13:21:31.681Z,20.08
2022-09-15T13:23:59.149Z,20.14
2022-09-15T13:26:28.275Z,20.06
2022-09-15T13:28:57.808Z,19.90
2022-09-15T13:31:35.930Z,19.63
2022-09-15T13:40:48.434Z,20.12
2022-09-15T13:43:42.163Z,20.47
2022-09-15T13:46:21.513Z,20.80
2022-09-15T13:49:13.086Z,21.18
2022-09-15T13:51:43.496Z,21.35
2022-09-15T13:54:16.539Z,21.36
2022-09-15T13:56:43.822Z,21.11
2022-09-15T13:59:17.355Z,21.00
2022-09-15T14:01:45.806Z,20.92
2022-09-15T14:04:15.881Z,20.96
2022-09-15T14:06:45.159Z,21.04
2022-09-15T14:09:15.676Z,20.66
2022-09-15T14:11:43.732Z,20.93
2022-09-15T14:14:32.062Z,20.81
2022-09-15T14:17:00.127Z,20.56
2022-09-15T14:19:30.758Z,20.72
2022-09-15T14:21:58.658Z,20.70
2022-09-15T14:24:27.841Z,20.66
2022-09-15T14:26:54.637Z,20.80
2022-09-15T14:29:23.474Z,20.70
2022-09-15T14:31:50.230Z,20.51
2022-09-15T14:34:21.258Z,20.36
2022-09-15T14:37:00.421Z,20.52
2022-09-15T14:39:26.974Z,20.52
2022-09-15T14:41:53.574Z,20.49
2022-09-15T14:47:12.394Z,20.46
2022-09-15T14:49:40.270Z,20.44
2022-09-15T14:52:22.805Z,20.38
2022-09-15T14:54:50.411Z,20.25
2022-09-15T14:57:22.806Z,20.18
2022-09-15T14:59:55.197Z,19.91
2022-09-15T15:02:28.977Z,19.92
2022-09-15T15:05:04.814Z,19.92
2022-09-15T15:07:35.805Z,19.79
2022-09-15T15:10:05.930Z,19.90
2022-09-15T15:12:35.905Z,19.83
2022-09-15T15:15:03.181Z,19.79
2022-09-15T15:17:35.593Z,19.59
2022-09-15T15:20:14.195Z,19.62
2022-09-15T15:22:42.165Z,19.54
2022-09-15T15:25:24.575Z,19.29
2022-09-15T15:27:52.374Z,19.14
2022-09-15T15:30:46.025Z,19.04
2022-09-15T15:33:19.854Z,18.81
2022-09-15T15:36:00.925Z,18.75
2022-09-15T15:38:27.661Z,18.68
2022-09-15T15:41:00.422Z,18.55
2022-09-15T15:43:27.213Z,18.54
2022-09-15T15:45:55.284Z,18.41
2022-09-15T15:48:21.872Z,18.36
2022-09-15T15:50:49.715Z,18.32
2022-09-15T15:53:16.538Z,18.27
2022-09-15T15:55:43.831Z,18.22
2022-09-15T15:58:11.331Z,18.18
2022-09-15T16:00:42.348Z,18.09
2022-09-15T16:03:08.937Z,18.00
2022-09-15T16:05:36.124Z,18.00
2022-09-15T16:08:07.129Z,18.05
2022-09-15T16:10:39.889Z,18.03
2022-09-15T16:13:06.707Z,18.02
2022-09-15T16:15:33.234Z,17.90
2022-09-15T16:18:00.170Z,17.93
2022-09-15T16:20:26.718Z,17.85
2022-09-15T16:22:53.315Z,17.81
2022-09-15T16:25:31.136Z,17.78
2022-09-15T16:27:57.692Z,17.68
2022-09-15T16:30:24.179Z,17.59
2022-09-15T16:32:50.701Z,17.60
2022-09-15T16:35:26.377Z,17.57
2022-09-15T16:37:53.149Z,17.53
2022-09-15T16:40:19.704Z,17.42
2022-09-15T16:42:48.402Z,17.43
2022-09-15T16:45:23.295Z,17.38
2022-09-15T16:47:49.844Z,17.32
2022-09-15T16:50:16.566Z,17.38
2022-09-15T16:52:43.373Z,17.39
2022-09-15T16:55:23.045Z,17.36
2022-09-15T16:57:51.177Z,17.30
2022-09-15T17:00:17.855Z,17.27
2022-09-15T17:02:44.539Z,17.25
2022-09-15T17:05:20.436Z,17.25
2022-09-15T17:07:47.089Z,17.20
2022-09-15T17:10:13.775Z,17.19
2022-09-15T17:12:40.534Z,17.21
2022-09-15T17:15:24.188Z,17.14
2022-09-15T17:17:50.965Z,17.12
2022-09-15T17:20:18.031Z,17.06
2022-09-15T17:22:44.918Z,16.79
2022-09-15T17:25:20.001Z,16.91
2022-09-15T17:27:46.579Z,16.96
2022-09-15T17:30:13.814Z,16.93
2022-09-15T17:32:42.264Z,16.94
2022-09-15T17:35:15.656Z,16.68
2022-09-15T17:37:42.532Z,16.70
2022-09-15T17:40:10.263Z,16.74
2022-09-15T17:42:36.941Z,16.72
2022-09-15T17:45:14.070Z,16.60
2022-09-15T17:47:42.049Z,16.51
2022-09-15T17:50:09.580Z,16.55
2022-09-15T17:52:36.172Z,16.31
2022-09-15T17:55:10.147Z,16.13
2022-09-15T17:57:36.651Z,16.35
2022-09-15T18:00:04.588Z,16.30
2022-09-15T18:02:31.984Z,16.06
2022-09-15T18:04:59.966Z,16.07
2022-09-15T18:07:26.602Z,16.19
2022-09-15T18:09:53.134Z,16.09
2022-09-15T18:12:19.990Z,16.23
2022-09-15T18:14:46.466Z,16.18
2022-09-15T18:17:13.040Z,16.19
2022-09-15T18:19:39.546Z,16.11
2022-09-15T18:22:08.931Z,16.07
2022-09-15T18:24:35.426Z,16.04
2022-09-15T18:27:02.013Z,15.99
2022-09-15T18:29:28.496Z,15.97
2022-09-15T18:31:55.036Z,15.94
2022-09-15T18:34:21.551Z,15.85
2022-09-15T18:36:48.147Z,15.87
2022-09-15T18:39:16.018Z,15.86
2022-09-15T18:41:42.646Z,15.85
2022-09-15T18:44:09.183Z,15.85
2022-09-15T18:46:35.834Z,15.82
2022-09-15T18:49:02.383Z,15.73
2022-09-15T18:51:34.884Z,15.78
2022-09-15T18:54:16.947Z,15.73
2022-09-15T18:56:43.507Z,15.62
2022-09-15T18:59:10.410Z,15.66
2022-09-15T19:01:37.127Z,15.63
2022-09-15T19:04:03.810Z,15.48
2022-09-15T19:06:30.282Z,15.51
2022-09-15T19:08:57.188Z,15.42
2022-09-15T19:11:28.813Z,15.48
2022-09-15T19:13:55.715Z,15.30
2022-09-15T19:16:22.956Z,15.36
2022-09-15T19:18:52.793Z,15.44
2022-09-15T19:21:21.089Z,15.31
2022-09-15T19:23:50.565Z,15.44
2022-09-15T19:26:17.128Z,15.45
2022-09-15T19:28:45.792Z,15.28
2022-09-15T19:31:13.017Z,15.47
2022-09-15T19:33:39.875Z,15.49
2022-09-15T19:36:27.445Z,15.47
2022-09-15T19:38:54.473Z,15.16
2022-09-15T19:41:21.264Z,15.49
2022-09-15T19:43:49.447Z,14.84
2022-09-15T19:46:18.979Z,15.40
2022-09-15T19:48:49.349Z,15.54
2022-09-15T19:51:24.674Z,15.30
2022-09-15T19:53:54.680Z,15.47
2022-09-15T19:56:22.937Z,15.55
2022-09-15T19:58:50.989Z,15.53
2022-09-15T20:01:19.884Z,15.52
2022-09-15T20:03:46.437Z,15.42
2022-09-15T20:06:13.151Z,15.50
2022-09-15T20:08:39.663Z,15.55
2022-09-15T20:11:07.528Z,15.55
2022-09-15T20:13:34.805Z,15.58
2022-09-15T20:16:03.277Z,15.57
2022-09-15T20:18:30.210Z,15.54
2022-09-15T20:20:57.158Z,15.48
2022-09-15T20:23:23.795Z,15.50
2022-09-15T20:25:57.683Z,15.41
2022-09-15T20:28:24.851Z,15.36
2022-09-15T20:31:04.538Z,15.32
2022-09-15T20:33:31.743Z,15.37
2022-09-15T20:36:00.613Z,15.45
2022-09-15T20:38:27.555Z,15.44
2022-09-15T20:40:54.487Z,15.21
2022-09-15T20:43:21.163Z,15.42
2022-09-15T20:45:55.368Z,15.42
2022-09-15T20:48:23.599Z,15.41
2022-09-15T20:50:50.137Z,15.38
2022-09-15T20:53:16.718Z,15.34
2022-09-15T20:55:48.724Z,15.29
2022-09-15T20:58:15.483Z,15.29
2022-09-15T21:00:42.051Z,15.25
2022-09-15T21:03:08.634Z,15.18
2022-09-15T21:05:36.484Z,15.17
2022-09-15T21:08:03.095Z,15.01
2022-09-15T21:10:29.604Z,15.14
2022-09-15T21:12:56.166Z,15.22
2022-09-15T21:15:22.708Z,15.16
2022-09-15T21:17:49.271Z,15.04
2022-09-15T21:20:16.051Z,15.14
2022-09-15T21:22:43.981Z,15.10
2022-09-15T21:25:10.476Z,15.07
2022-09-15T21:27:37.302Z,15.01
2022-09-15T21:30:04.961Z,15.07
2022-09-15T21:32:32.187Z,15.01
2022-09-15T21:34:58.726Z,15.00
2022-09-15T21:37:26.067Z,14.96
2022-09-15T21:39:54.051Z,14.84
2022-09-15T21:42:20.681Z,14.82
2022-09-15T21:44:47.177Z,14.90
2022-09-15T21:47:13.747Z,14.92
2022-09-15T21:49:40.241Z,14.88
2022-09-15T21:52:06.805Z,14.84
2022-09-15T21:54:33.318Z,14.85
2022-09-15T21:57:01.273Z,14.81
2022-09-15T21:59:27.943Z,14.66
2022-09-15T22:01:54.530Z,14.78
2022-09-15T22:04:21.302Z,14.76
2022-09-15T22:06:47.886Z,14.61
2022-09-15T22:09:17.023Z,14.61
2022-09-15T22:11:44.067Z,14.73
2022-09-15T22:14:11.970Z,14.69
2022-09-15T22:16:40.135Z,14.69
2022-09-15T22:19:07.793Z,14.66
2022-09-15T22:21:34.851Z,14.58
2022-09-15T22:24:02.439Z,14.64
2022-09-15T22:26:30.908Z,14.57
2022-09-15T22:28:59.305Z,14.61
2022-09-15T22:31:28.193Z,14.52
2022-09-15T22:33:56.513Z,14.50
2022-09-15T22:36:29.325Z,14.46
2022-09-15T22:38:57.834Z,14.55
2022-09-15T22:41:24.506Z,14.53
2022-09-15T22:43:51.292Z,14.49
2022-09-15T22:46:19.146Z,14.27
2022-09-15T22:48:47.367Z,14.44
2022-09-15T22:51:14.386Z,14.42
2022-09-15T22:53:41.395Z,14.43
2022-09-15T22:56:10.743Z,14.46
2022-09-15T22:58:37.631Z,14.47
2022-09-15T23:01:05.284Z,14.48
2022-09-15T23:03:31.941Z,14.44
2022-09-15T23:06:00.791Z,14.35
2022-09-15T23:08:27.429Z,14.40
2022-09-15T23:11:00.928Z,14.37
2022-09-15T23:13:27.477Z,14.36
2022-09-15T23:15:53.999Z,14.32
2022-09-15T23:18:20.673Z,14.12
2022-09-15T23:20:47.182Z,14.25
2022-09-15T23:23:15.137Z,14.28
2022-09-15T23:25:41.638Z,14.27
2022-09-15T23:28:08.166Z,14.18
2022-09-15T23:30:34.650Z,14.22
2022-09-15T23:33:01.233Z,14.22
2022-09-15T23:35:27.697Z,14.22
2022-09-15T23:37:54.219Z,14.21
2022-09-15T23:40:22.109Z,14.19
2022-09-15T23:42:48.755Z,14.03
2022-09-15T23:45:15.387Z,14.18
2022-09-15T23:47:41.933Z,14.13
2022-09-15T23:50:09.359Z,13.97
2022-09-15T23:52:35.979Z,14.01
2022-09-15T23:55:02.501Z,13.93
2022-09-15T23:57:30.492Z,13.88
2022-09-15T23:59:56.977Z,13.80
